sensor_id;sensor_type;location;lat;lon;timestamp;pressure;altitude;pressure_sealevel;temperature;humidity
14089;BME280;7120;52.890;6.040;2023-06-10T00:00:41;101670.59;;;17.58;90.01
14089;BME280;7120;52.890;6.040;2023-06-10T00:03:07;101672.38;;;17.54;89.92
14089;BME280;7120;52.890;6.040;2023-06-10T00:05:34;101667.19;;;17.53;89.22
14089;BME280;7120;52.890;6.040;2023-06-10T00:08:00;101681.34;;;17.51;89.59
14089;BME280;7120;52.890;6.040;2023-06-10T00:10:35;101677.94;;;17.46;89.57
14089;BME280;7120;52.890;6.040;2023-06-10T00:13:04;101682.00;;;17.40;89.84
14089;BME280;7120;52.890;6.040;2023-06-10T00:15:30;101678.63;;;17.34;90.74
14089;BME280;7120;52.890;6.040;2023-06-10T00:17:56;101683.00;;;17.44;89.96
14089;BME280;7120;52.890;6.040;2023-06-10T00:20:21;101677.28;;;17.40;89.08
14089;BME280;7120;52.890;6.040;2023-06-10T00:22:49;101677.63;;;17.39;90.42
14089;BME280;7120;52.890;6.040;2023-06-10T00:25:15;101673.56;;;17.45;88.99
14089;BME280;7120;52.890;6.040;2023-06-10T00:27:40;101684.63;;;17.45;89.25
14089;BME280;7120;52.890;6.040;2023-06-10T00:30:06;101689.34;;;17.44;89.28
14089;BME280;7120;52.890;6.040;2023-06-10T00:32:35;101682.50;;;17.33;90.54
14089;BME280;7120;52.890;6.040;2023-06-10T00:35:01;101673.09;;;17.34;89.82
14089;BME280;7120;52.890;6.040;2023-06-10T00:37:27;101681.06;;;17.27;90.71
14089;BME280;7120;52.890;6.040;2023-06-10T00:39:54;101670.81;;;17.27;90.18
14089;BME280;7120;52.890;6.040;2023-06-10T00:42:19;101670.66;;;17.24;91.78
14089;BME280;7120;52.890;6.040;2023-06-10T00:44:45;101681.38;;;17.25;90.61
14089;BME280;7120;52.890;6.040;2023-06-10T00:47:10;101673.91;;;17.17;92.17
14089;BME280;7120;52.890;6.040;2023-06-10T00:49:36;101675.06;;;17.16;90.94
14089;BME280;7120;52.890;6.040;2023-06-10T00:52:03;101677.81;;;17.16;91.61
14089;BME280;7120;52.890;6.040;2023-06-10T00:54:30;101670.69;;;17.07;91.62
14089;BME280;7120;52.890;6.040;2023-06-10T00:56:56;101683.34;;;17.16;90.16
14089;BME280;7120;52.890;6.040;2023-06-10T00:59:21;101677.00;;;17.16;89.98
14089;BME280;7120;52.890;6.040;2023-06-10T01:01:47;101680.75;;;17.20;89.29
14089;BME280;7120;52.890;6.040;2023-06-10T01:04:13;101673.56;;;17.19;89.31
14089;BME280;7120;52.890;6.040;2023-06-10T01:06:50;101674.91;;;17.13;89.51
14089;BME280;7120;52.890;6.040;2023-06-10T01:09:45;101685.63;;;17.14;90.09
14089;BME280;7120;52.890;6.040;2023-06-10T01:12:39;101690.69;;;17.21;89.27
14089;BME280;7120;52.890;6.040;2023-06-10T01:15:07;101687.09;;;17.12;89.65
14089;BME280;7120;52.890;6.040;2023-06-10T01:17:33;101682.53;;;17.16;88.94
14089;BME280;7120;52.890;6.040;2023-06-10T01:19:59;101689.22;;;17.06;89.45
14089;BME280;7120;52.890;6.040;2023-06-10T01:22:25;101683.50;;;17.11;88.99
14089;BME280;7120;52.890;6.040;2023-06-10T01:24:54;101693.09;;;17.05;90.09
14089;BME280;7120;52.890;6.040;2023-06-10T01:27:26;101700.56;;;17.05;89.74
14089;BME280;7120;52.890;6.040;2023-06-10T01:29:59;101695.38;;;17.03;89.65
14089;BME280;7120;52.890;6.040;2023-06-10T01:32:37;101693.75;;;17.02;90.30
14089;BME280;7120;52.890;6.040;2023-06-10T01:35:06;101694.91;;;17.01;90.13
14089;BME280;7120;52.890;6.040;2023-06-10T01:37:33;101695.72;;;16.93;90.51
14089;BME280;7120;52.890;6.040;2023-06-10T01:40:02;101691.63;;;16.82;91.70
14089;BME280;7120;52.890;6.040;2023-06-10T01:42:31;101695.19;;;16.73;92.05
14089;BME280;7120;52.890;6.040;2023-06-10T01:44:57;101692.28;;;16.79;91.46
14089;BME280;7120;52.890;6.040;2023-06-10T01:47:23;101693.56;;;16.72;91.80
14089;BME280;7120;52.890;6.040;2023-06-10T01:49:48;101700.03;;;16.68;92.18
14089;BME280;7120;52.890;6.040;2023-06-10T01:52:13;101683.91;;;16.61;92.17
14089;BME280;7120;52.890;6.040;2023-06-10T01:54:39;101689.97;;;16.63;92.63
14089;BME280;7120;52.890;6.040;2023-06-10T01:57:06;101691.38;;;16.43;93.69
14089;BME280;7120;52.890;6.040;2023-06-10T01:59:31;101696.72;;;16.48;94.18
14089;BME280;7120;52.890;6.040;2023-06-10T02:01:57;101696.44;;;16.50;93.28
14089;BME280;7120;52.890;6.040;2023-06-10T02:04:22;101700.13;;;16.45;94.09
14089;BME280;7120;52.890;6.040;2023-06-10T02:06:47;101692.00;;;16.40;93.32
14089;BME280;7120;52.890;6.040;2023-06-10T02:09:13;101693.78;;;16.36;93.46
14089;BME280;7120;52.890;6.040;2023-06-10T02:11:39;101696.34;;;16.33;93.18
14089;BME280;7120;52.890;6.040;2023-06-10T02:14:05;101697.03;;;16.38;93.65
14089;BME280;7120;52.890;6.040;2023-06-10T02:16:30;101703.03;;;16.32;94.73
14089;BME280;7120;52.890;6.040;2023-06-10T02:18:56;101701.25;;;16.36;93.95
14089;BME280;7120;52.890;6.040;2023-06-10T02:21:22;101701.41;;;16.31;94.31
14089;BME280;7120;52.890;6.040;2023-06-10T02:23:47;101712.09;;;16.24;95.16
14089;BME280;7120;52.890;6.040;2023-06-10T02:26:12;101704.28;;;16.26;94.18
14089;BME280;7120;52.890;6.040;2023-06-10T02:28:38;101704.06;;;16.13;95.79
14089;BME280;7120;52.890;6.040;2023-06-10T02:31:03;101711.38;;;16.09;95.56
14089;BME280;7120;52.890;6.040;2023-06-10T02:33:28;101709.09;;;16.11;94.82
14089;BME280;7120;52.890;6.040;2023-06-10T02:35:55;101703.59;;;16.11;95.07
14089;BME280;7120;52.890;6.040;2023-06-10T02:38:20;101714.31;;;16.13;94.78
14089;BME280;7120;52.890;6.040;2023-06-10T02:40:46;101708.59;;;16.01;95.20
14089;BME280;7120;52.890;6.040;2023-06-10T02:43:11;101709.22;;;15.98;94.83
14089;BME280;7120;52.890;6.040;2023-06-10T02:45:36;101707.25;;;15.98;96.15
14089;BME280;7120;52.890;6.040;2023-06-10T02:48:02;101703.97;;;15.87;96.14
14089;BME280;7120;52.890;6.040;2023-06-10T02:50:27;101708.03;;;15.90;95.70
14089;BME280;7120;52.890;6.040;2023-06-10T02:52:53;101715.19;;;15.91;95.32
14089;BME280;7120;52.890;6.040;2023-06-10T02:55:18;101712.06;;;15.84;95.22
14089;BME280;7120;52.890;6.040;2023-06-10T02:57:43;101706.84;;;15.82;95.93
14089;BME280;7120;52.890;6.040;2023-06-10T03:00:09;101708.81;;;15.82;96.18
14089;BME280;7120;52.890;6.040;2023-06-10T03:02:36;101708.59;;;15.78;96.73
14089;BME280;7120;52.890;6.040;2023-06-10T03:05:04;101702.72;;;15.71;96.11
14089;BME280;7120;52.890;6.040;2023-06-10T03:07:30;101708.88;;;15.68;96.03
14089;BME280;7120;52.890;6.040;2023-06-10T03:09:56;101709.94;;;15.58;96.70
14089;BME280;7120;52.890;6.040;2023-06-10T03:12:21;101715.91;;;15.52;96.76
14089;BME280;7120;52.890;6.040;2023-06-10T03:14:46;101707.78;;;15.55;96.96
14089;BME280;7120;52.890;6.040;2023-06-10T03:17:12;101704.78;;;15.43;97.97
14089;BME280;7120;52.890;6.040;2023-06-10T03:19:37;101709.19;;;15.44;97.87
14089;BME280;7120;52.890;6.040;2023-06-10T03:22:11;101703.47;;;15.41;98.51
14089;BME280;7120;52.890;6.040;2023-06-10T03:24:37;101710.63;;;15.42;97.94
14089;BME280;7120;52.890;6.040;2023-06-10T03:27:08;101705.91;;;15.42;97.90
14089;BME280;7120;52.890;6.040;2023-06-10T03:29:35;101711.75;;;15.41;98.06
14089;BME280;7120;52.890;6.040;2023-06-10T03:32:00;101704.34;;;15.50;96.87
14089;BME280;7120;52.890;6.040;2023-06-10T03:34:26;101706.72;;;15.43;96.86
14089;BME280;7120;52.890;6.040;2023-06-10T03:36:51;101707.31;;;15.53;97.39
14089;BME280;7120;52.890;6.040;2023-06-10T03:39:17;101706.28;;;15.49;98.22
14089;BME280;7120;52.890;6.040;2023-06-10T03:41:42;101706.34;;;15.72;95.45
14089;BME280;7120;52.890;6.040;2023-06-10T03:44:07;101710.06;;;15.76;95.04
14089;BME280;7120;52.890;6.040;2023-06-10T03:46:33;101723.69;;;15.72;95.54
14089;BME280;7120;52.890;6.040;2023-06-10T03:48:58;101718.97;;;15.73;95.00
14089;BME280;7120;52.890;6.040;2023-06-10T03:51:26;101717.69;;;15.56;96.17
14089;BME280;7120;52.890;6.040;2023-06-10T03:53:51;101714.13;;;15.56;97.09
14089;BME280;7120;52.890;6.040;2023-06-10T03:56:16;101723.66;;;15.50;97.33
14089;BME280;7120;52.890;6.040;2023-06-10T03:58:42;101722.03;;;15.49;96.97
14089;BME280;7120;52.890;6.040;2023-06-10T04:01:07;101719.09;;;15.45;98.25
14089;BME280;7120;52.890;6.040;2023-06-10T04:03:33;101715.09;;;15.51;97.19
14089;BME280;7120;52.890;6.040;2023-06-10T04:05:58;101721.25;;;15.57;97.54
14089;BME280;7120;52.890;6.040;2023-06-10T04:08:23;101723.53;;;15.55;96.62
14089;BME280;7120;52.890;6.040;2023-06-10T04:10:49;101724.53;;;15.59;97.55
14089;BME280;7120;52.890;6.040;2023-06-10T04:13:14;101717.09;;;15.59;95.57
14089;BME280;7120;52.890;6.040;2023-06-10T04:15:40;101715.09;;;15.74;96.01
14089;BME280;7120;52.890;6.040;2023-06-10T04:18:06;101724.06;;;15.79;95.15
14089;BME280;7120;52.890;6.040;2023-06-10T04:20:31;101729.94;;;15.86;94.10
14089;BME280;7120;52.890;6.040;2023-06-10T04:22:57;101727.19;;;15.86;93.86
14089;BME280;7120;52.890;6.040;2023-06-10T04:25:22;101734.66;;;15.86;93.87
14089;BME280;7120;52.890;6.040;2023-06-10T04:27:49;101734.72;;;16.03;93.50
14089;BME280;7120;52.890;6.040;2023-06-10T04:30:16;101734.84;;;15.98;93.64
14089;BME280;7120;52.890;6.040;2023-06-10T04:32:41;101728.88;;;16.05;94.54
14089;BME280;7120;52.890;6.040;2023-06-10T04:35:07;101741.88;;;16.04;93.77
14089;BME280;7120;52.890;6.040;2023-06-10T04:37:33;101738.50;;;16.07;93.58
14089;BME280;7120;52.890;6.040;2023-06-10T04:39:58;101741.41;;;16.11;94.42
14089;BME280;7120;52.890;6.040;2023-06-10T04:42:24;101743.00;;;16.03;94.49
14089;BME280;7120;52.890;6.040;2023-06-10T04:44:50;101729.88;;;16.09;94.60
14089;BME280;7120;52.890;6.040;2023-06-10T04:47:15;101742.91;;;16.17;94.61
14089;BME280;7120;52.890;6.040;2023-06-10T04:49:42;101739.19;;;16.22;95.06
14089;BME280;7120;52.890;6.040;2023-06-10T04:52:07;101742.78;;;16.22;95.47
14089;BME280;7120;52.890;6.040;2023-06-10T04:54:33;101750.25;;;16.22;95.49
14089;BME280;7120;52.890;6.040;2023-06-10T04:56:58;101751.75;;;16.36;94.22
14089;BME280;7120;52.890;6.040;2023-06-10T04:59:24;101760.09;;;16.54;95.06
14089;BME280;7120;52.890;6.040;2023-06-10T05:01:50;101749.72;;;16.59;93.24
14089;BME280;7120;52.890;6.040;2023-06-10T05:04:15;101754.78;;;16.66;93.56
14089;BME280;7120;52.890;6.040;2023-06-10T05:06:40;101762.66;;;16.90;92.98
14089;BME280;7120;52.890;6.040;2023-06-10T05:09:06;101754.38;;;16.90;92.17
14089;BME280;7120;52.890;6.040;2023-06-10T05:11:31;101761.72;;;17.12;91.85
14089;BME280;7120;52.890;6.040;2023-06-10T05:13:57;101759.94;;;16.98;91.97
14089;BME280;7120;52.890;6.040;2023-06-10T05:16:22;101759.75;;;16.95;92.50
14089;BME280;7120;52.890;6.040;2023-06-10T05:18:48;101765.47;;;16.98;92.72
14089;BME280;7120;52.890;6.040;2023-06-10T05:21:13;101770.81;;;17.03;94.25
14089;BME280;7120;52.890;6.040;2023-06-10T05:23:38;101762.03;;;17.10;93.58
14089;BME280;7120;52.890;6.040;2023-06-10T05:26:04;101762.03;;;16.93;93.30
14089;BME280;7120;52.890;6.040;2023-06-10T05:28:29;101765.75;;;16.97;94.55
14089;BME280;7120;52.890;6.040;2023-06-10T05:30:55;101763.31;;;16.87;94.32
14089;BME280;7120;52.890;6.040;2023-06-10T05:33:20;101764.94;;;16.96;96.46
14089;BME280;7120;52.890;6.040;2023-06-10T05:35:45;101755.88;;;17.13;95.65
14089;BME280;7120;52.890;6.040;2023-06-10T05:38:11;101755.38;;;17.11;95.91
14089;BME280;7120;52.890;6.040;2023-06-10T05:40:36;101766.13;;;17.30;93.99
14089;BME280;7120;52.890;6.040;2023-06-10T05:43:01;101767.59;;;17.27;94.44
14089;BME280;7120;52.890;6.040;2023-06-10T05:45:27;101769.88;;;17.34;94.13
14089;BME280;7120;52.890;6.040;2023-06-10T05:47:53;101771.31;;;17.32;93.29
14089;BME280;7120;52.890;6.040;2023-06-10T05:50:18;101772.13;;;17.32;94.23
14089;BME280;7120;52.890;6.040;2023-06-10T05:52:43;101773.47;;;17.35;92.94
14089;BME280;7120;52.890;6.040;2023-06-10T05:55:09;101768.22;;;17.33;93.91
14089;BME280;7120;52.890;6.040;2023-06-10T05:57:35;101764.66;;;17.33;93.66
14089;BME280;7120;52.890;6.040;2023-06-10T06:00:00;101772.31;;;17.44;94.41
14089;BME280;7120;52.890;6.040;2023-06-10T06:02:26;101763.69;;;17.72;92.27
14089;BME280;7120;52.890;6.040;2023-06-10T06:04:51;101760.94;;;17.72;91.85
14089;BME280;7120;52.890;6.040;2023-06-10T06:07:16;101771.50;;;17.78;91.50
14089;BME280;7120;52.890;6.040;2023-06-10T06:09:42;101768.06;;;17.81;90.93
14089;BME280;7120;52.890;6.040;2023-06-10T06:12:07;101763.81;;;17.93;92.48
14089;BME280;7120;52.890;6.040;2023-06-10T06:14:37;101774.22;;;18.04;89.85
14089;BME280;7120;52.890;6.040;2023-06-10T06:17:03;101758.63;;;17.91;89.80
14089;BME280;7120;52.890;6.040;2023-06-10T06:19:28;101761.53;;;17.95;90.26
14089;BME280;7120;52.890;6.040;2023-06-10T06:21:53;101763.91;;;18.14;90.96
14089;BME280;7120;52.890;6.040;2023-06-10T06:24:19;101761.50;;;18.03;90.11
14089;BME280;7120;52.890;6.040;2023-06-10T06:26:44;101772.22;;;18.14;89.06
14089;BME280;7120;52.890;6.040;2023-06-10T06:29:10;101760.47;;;18.25;87.58
14089;BME280;7120;52.890;6.040;2023-06-10T06:31:35;101758.31;;;18.31;86.82
14089;BME280;7120;52.890;6.040;2023-06-10T06:34:01;101749.78;;;18.45;86.47
14089;BME280;7120;52.890;6.040;2023-06-10T06:36:27;101761.75;;;18.66;86.64
14089;BME280;7120;52.890;6.040;2023-06-10T06:38:52;101759.56;;;18.80;85.95
14089;BME280;7120;52.890;6.040;2023-06-10T06:41:17;101763.75;;;18.86;85.26
14089;BME280;7120;52.890;6.040;2023-06-10T06:43:43;101757.84;;;18.97;83.91
14089;BME280;7120;52.890;6.040;2023-06-10T06:46:08;101757.63;;;19.02;82.94
14089;BME280;7120;52.890;6.040;2023-06-10T06:48:35;101757.97;;;19.00;84.46
14089;BME280;7120;52.890;6.040;2023-06-10T06:51:00;101761.31;;;18.85;84.16
14089;BME280;7120;52.890;6.040;2023-06-10T06:53:27;101752.28;;;18.97;84.11
14089;BME280;7120;52.890;6.040;2023-06-10T06:55:52;101754.66;;;19.07;81.56
14089;BME280;7120;52.890;6.040;2023-06-10T06:58:18;101754.84;;;19.43;81.09
14089;BME280;7120;52.890;6.040;2023-06-10T07:00:43;101755.91;;;19.72;82.48
14089;BME280;7120;52.890;6.040;2023-06-10T07:03:08;101763.81;;;19.82;80.91
14089;BME280;7120;52.890;6.040;2023-06-10T07:05:34;101763.34;;;20.25;75.96
14089;BME280;7120;52.890;6.040;2023-06-10T07:07:59;101759.38;;;21.00;72.38
14089;BME280;7120;52.890;6.040;2023-06-10T07:10:25;101761.44;;;21.83;69.48
14089;BME280;7120;52.890;6.040;2023-06-10T07:12:51;101777.84;;;22.01;68.01
14089;BME280;7120;52.890;6.040;2023-06-10T07:15:17;101775.09;;;21.73;68.43
14089;BME280;7120;52.890;6.040;2023-06-10T07:17:43;101777.50;;;21.74;69.11
14089;BME280;7120;52.890;6.040;2023-06-10T07:20:08;101769.94;;;22.03;67.23
14089;BME280;7120;52.890;6.040;2023-06-10T07:22:34;101773.69;;;21.94;66.80
14089;BME280;7120;52.890;6.040;2023-06-10T07:24:59;101776.34;;;22.19;65.76
14089;BME280;7120;52.890;6.040;2023-06-10T07:27:25;101787.34;;;22.43;65.36
14089;BME280;7120;52.890;6.040;2023-06-10T07:29:50;101781.41;;;22.45;63.11
14089;BME280;7120;52.890;6.040;2023-06-10T07:32:16;101779.19;;;23.01;63.79
14089;BME280;7120;52.890;6.040;2023-06-10T07:34:41;101781.56;;;22.84;62.41
14089;BME280;7120;52.890;6.040;2023-06-10T07:37:07;101779.22;;;22.86;63.07
14089;BME280;7120;52.890;6.040;2023-06-10T07:39:32;101778.22;;;23.48;62.00
14089;BME280;7120;52.890;6.040;2023-06-10T07:41:58;101774.94;;;23.62;60.18
14089;BME280;7120;52.890;6.040;2023-06-10T07:44:23;101776.81;;;23.97;61.31
14089;BME280;7120;52.890;6.040;2023-06-10T07:46:49;101775.88;;;24.12;60.57
14089;BME280;7120;52.890;6.040;2023-06-10T07:49:14;101779.81;;;25.36;55.37
14089;BME280;7120;52.890;6.040;2023-06-10T07:51:40;101773.47;;;24.83;53.73
14089;BME280;7120;52.890;6.040;2023-06-10T07:54:05;101774.88;;;24.70;54.30
14089;BME280;7120;52.890;6.040;2023-06-10T07:56:31;101774.56;;;24.75;52.83
14089;BME280;7120;52.890;6.040;2023-06-10T07:58:57;101781.47;;;24.58;54.59
14089;BME280;7120;52.890;6.040;2023-06-10T08:01:23;101771.47;;;24.11;55.70
14089;BME280;7120;52.890;6.040;2023-06-10T08:03:48;101777.19;;;24.90;52.73
14089;BME280;7120;52.890;6.040;2023-06-10T08:06:14;101777.84;;;25.07;53.31
14089;BME280;7120;52.890;6.040;2023-06-10T08:08:39;101774.03;;;25.22;52.16
14089;BME280;7120;52.890;6.040;2023-06-10T08:11:08;101778.41;;;25.19;52.62
14089;BME280;7120;52.890;6.040;2023-06-10T08:13:33;101787.56;;;25.46;53.07
14089;BME280;7120;52.890;6.040;2023-06-10T08:15:59;101781.13;;;25.76;49.61
14089;BME280;7120;52.890;6.040;2023-06-10T08:18:24;101787.31;;;26.33;47.62
14089;BME280;7120;52.890;6.040;2023-06-10T08:20:49;101784.28;;;26.08;47.01
14089;BME280;7120;52.890;6.040;2023-06-10T08:23:15;101791.00;;;26.41;46.42
14089;BME280;7120;52.890;6.040;2023-06-10T08:25:40;101782.97;;;25.98;46.96
14089;BME280;7120;52.890;6.040;2023-06-10T08:28:06;101790.31;;;25.73;47.85
14089;BME280;7120;52.890;6.040;2023-06-10T08:30:31;101787.81;;;26.01;49.22
14089;BME280;7120;52.890;6.040;2023-06-10T08:32:56;101794.63;;;26.41;47.32
14089;BME280;7120;52.890;6.040;2023-06-10T08:35:22;101785.19;;;26.64;46.18
14089;BME280;7120;52.890;6.040;2023-06-10T08:37:47;101784.72;;;26.54;44.37
14089;BME280;7120;52.890;6.040;2023-06-10T08:40:13;101790.94;;;26.85;45.21
14089;BME280;7120;52.890;6.040;2023-06-10T08:45:23;101789.72;;;26.82;45.68
14089;BME280;7120;52.890;6.040;2023-06-10T08:47:50;101796.13;;;26.32;47.64
14089;BME280;7120;52.890;6.040;2023-06-10T08:50:18;101787.56;;;26.17;47.11
14089;BME280;7120;52.890;6.040;2023-06-10T08:52:47;101791.53;;;26.13;48.76
14089;BME280;7120;52.890;6.040;2023-06-10T08:55:44;101797.88;;;26.43;46.42
14089;BME280;7120;52.890;6.040;2023-06-10T08:58:08;101793.13;;;26.54;45.04
14089;BME280;7120;52.890;6.040;2023-06-10T09:00:35;101787.94;;;27.08;44.43
14089;BME280;7120;52.890;6.040;2023-06-10T09:03:02;101785.59;;;27.24;46.01
14089;BME280;7120;52.890;6.040;2023-06-10T09:05:28;101785.78;;;27.63;44.38
14089;BME280;7120;52.890;6.040;2023-06-10T09:07:57;101786.91;;;27.45;43.26
14089;BME280;7120;52.890;6.040;2023-06-10T09:10:22;101785.31;;;27.54;42.08
14089;BME280;7120;52.890;6.040;2023-06-10T09:12:48;101787.47;;;27.86;42.80
14089;BME280;7120;52.890;6.040;2023-06-10T09:15:13;101783.63;;;27.32;40.76
14089;BME280;7120;52.890;6.040;2023-06-10T09:17:40;101787.84;;;27.01;41.35
14089;BME280;7120;52.890;6.040;2023-06-10T09:20:07;101786.56;;;26.88;42.90
14089;BME280;7120;52.890;6.040;2023-06-10T09:22:33;101787.94;;;27.08;40.47
14089;BME280;7120;52.890;6.040;2023-06-10T09:25:05;101776.84;;;27.47;40.22
14089;BME280;7120;52.890;6.040;2023-06-10T09:27:32;101774.97;;;27.73;40.84
14089;BME280;7120;52.890;6.040;2023-06-10T09:29:58;101784.31;;;28.19;39.96
14089;BME280;7120;52.890;6.040;2023-06-10T09:32:24;101783.56;;;28.33;38.54
14089;BME280;7120;52.890;6.040;2023-06-10T09:34:50;101773.41;;;29.07;35.76
14089;BME280;7120;52.890;6.040;2023-06-10T09:37:25;101773.81;;;29.13;36.68
14089;BME280;7120;52.890;6.040;2023-06-10T09:40:03;101782.13;;;29.45;36.94
14089;BME280;7120;52.890;6.040;2023-06-10T09:42:32;101780.22;;;29.17;35.89
14089;BME280;7120;52.890;6.040;2023-06-10T09:44:58;101778.19;;;29.21;36.74
14089;BME280;7120;52.890;6.040;2023-06-10T09:47:23;101782.19;;;29.34;37.23
14089;BME280;7120;52.890;6.040;2023-06-10T09:49:50;101786.75;;;28.32;39.29
14089;BME280;7120;52.890;6.040;2023-06-10T09:52:25;101787.41;;;29.36;37.15
14089;BME280;7120;52.890;6.040;2023-06-10T09:54:52;101787.13;;;28.27;35.52
14089;BME280;7120;52.890;6.040;2023-06-10T09:57:18;101779.03;;;28.89;35.10
14089;BME280;7120;52.890;6.040;2023-06-10T09:59:45;101788.31;;;28.86;35.97
14089;BME280;7120;52.890;6.040;2023-06-10T10:02:17;101787.53;;;28.75;35.62
14089;BME280;7120;52.890;6.040;2023-06-10T10:04:43;101780.75;;;28.40;36.06
14089;BME280;7120;52.890;6.040;2023-06-10T10:07:10;101771.78;;;29.10;35.94
14089;BME280;7120;52.890;6.040;2023-06-10T10:09:36;101778.13;;;29.42;34.93
14089;BME280;7120;52.890;6.040;2023-06-10T10:12:10;101771.00;;;29.02;34.30
14089;BME280;7120;52.890;6.040;2023-06-10T10:14:45;101780.19;;;29.27;35.06
14089;BME280;7120;52.890;6.040;2023-06-10T10:17:11;101777.09;;;28.68;34.51
14089;BME280;7120;52.890;6.040;2023-06-10T10:19:50;101773.88;;;28.45;34.04
14089;BME280;7120;52.890;6.040;2023-06-10T10:22:22;101780.94;;;29.42;35.70
14089;BME280;7120;52.890;6.040;2023-06-10T10:24:54;101782.72;;;28.97;35.69
14089;BME280;7120;52.890;6.040;2023-06-10T10:27:26;101782.84;;;29.67;32.37
14089;BME280;7120;52.890;6.040;2023-06-10T10:29:53;101773.28;;;29.43;32.54
14089;BME280;7120;52.890;6.040;2023-06-10T10:32:29;101771.25;;;29.43;32.36
14089;BME280;7120;52.890;6.040;2023-06-10T10:35:08;101778.75;;;29.78;30.72
14089;BME280;7120;52.890;6.040;2023-06-10T10:37:35;101769.91;;;30.39;29.01
14089;BME280;7120;52.890;6.040;2023-06-10T10:40:01;101768.81;;;30.22;29.22
14089;BME280;7120;52.890;6.040;2023-06-10T10:42:28;101765.59;;;30.65;30.54
14089;BME280;7120;52.890;6.040;2023-06-10T10:44:54;101759.94;;;31.06;29.58
14089;BME280;7120;52.890;6.040;2023-06-10T10:47:27;101764.00;;;30.68;29.81
14089;BME280;7120;52.890;6.040;2023-06-10T10:49:54;101756.44;;;30.54;28.50
14089;BME280;7120;52.890;6.040;2023-06-10T10:52:24;101753.78;;;30.81;28.44
14089;BME280;7120;52.890;6.040;2023-06-10T10:54:52;101754.13;;;31.21;26.72
14089;BME280;7120;52.890;6.040;2023-06-10T10:57:19;101761.56;;;30.70;27.51
14089;BME280;7120;52.890;6.040;2023-06-10T11:02:36;101759.94;;;30.24;28.26
14089;BME280;7120;52.890;6.040;2023-06-10T11:05:04;101754.06;;;30.52;25.71
14089;BME280;7120;52.890;6.040;2023-06-10T11:07:31;101743.13;;;30.10;26.69
14089;BME280;7120;52.890;6.040;2023-06-10T11:10:07;101749.59;;;30.55;27.35
14089;BME280;7120;52.890;6.040;2023-06-10T11:12:59;101742.97;;;30.31;25.54
14089;BME280;7120;52.890;6.040;2023-06-10T11:15:29;101739.94;;;30.49;24.22
14089;BME280;7120;52.890;6.040;2023-06-10T11:26:21;101733.06;;;30.95;25.04
14089;BME280;7120;52.890;6.040;2023-06-10T11:31:29;101732.97;;;30.19;25.55
14089;BME280;7120;52.890;6.040;2023-06-10T11:34:04;101727.00;;;30.51;24.23
14089;BME280;7120;52.890;6.040;2023-06-10T11:36:31;101722.72;;;30.36;23.52
14089;BME280;7120;52.890;6.040;2023-06-10T11:38:58;101721.22;;;30.66;24.10
14089;BME280;7120;52.890;6.040;2023-06-10T11:41:25;101727.81;;;30.93;23.19
14089;BME280;7120;52.890;6.040;2023-06-10T11:43:54;101718.81;;;31.36;22.93
14089;BME280;7120;52.890;6.040;2023-06-10T11:46:23;101725.22;;;30.72;23.74
14089;BME280;7120;52.890;6.040;2023-06-10T11:48:52;101721.69;;;30.98;23.83
14089;BME280;7120;52.890;6.040;2023-06-10T11:51:18;101726.19;;;31.30;22.74
14089;BME280;7120;52.890;6.040;2023-06-10T11:53:47;101722.47;;;31.94;22.52
14089;BME280;7120;52.890;6.040;2023-06-10T11:56:13;101720.16;;;31.28;22.75
14089;BME280;7120;52.890;6.040;2023-06-10T11:58:43;101711.44;;;31.11;24.09
14089;BME280;7120;52.890;6.040;2023-06-10T12:01:10;101708.81;;;31.31;22.13
14089;BME280;7120;52.890;6.040;2023-06-10T12:03:38;101715.91;;;31.43;22.18
14089;BME280;7120;52.890;6.040;2023-06-10T12:06:06;101706.88;;;31.82;21.96
14089;BME280;7120;52.890;6.040;2023-06-10T12:08:33;101708.28;;;32.44;19.70
14089;BME280;7120;52.890;6.040;2023-06-10T12:10:58;101705.38;;;32.01;20.76
14089;BME280;7120;52.890;6.040;2023-06-10T12:13:27;101708.38;;;32.80;19.97
14089;BME280;7120;52.890;6.040;2023-06-10T12:15:53;101699.28;;;32.49;18.97
14089;BME280;7120;52.890;6.040;2023-06-10T12:18:22;101693.31;;;33.07;19.20
14089;BME280;7120;52.890;6.040;2023-06-10T12:20:48;101704.16;;;32.69;17.78
14089;BME280;7120;52.890;6.040;2023-06-10T12:23:17;101699.59;;;32.75;17.67
14089;BME280;7120;52.890;6.040;2023-06-10T12:25:53;101706.38;;;32.38;18.96
14089;BME280;7120;52.890;6.040;2023-06-10T12:28:26;101695.84;;;31.61;20.24
14089;BME280;7120;52.890;6.040;2023-06-10T12:31:06;101697.34;;;31.69;20.97
14089;BME280;7120;52.890;6.040;2023-06-10T12:33:31;101698.75;;;31.84;21.28
14089;BME280;7120;52.890;6.040;2023-06-10T12:35:57;101707.19;;;31.88;20.42
14089;BME280;7120;52.890;6.040;2023-06-10T12:38:26;101691.69;;;31.69;20.48
14089;BME280;7120;52.890;6.040;2023-06-10T12:40:52;101688.81;;;31.46;19.88
14089;BME280;7120;52.890;6.040;2023-06-10T12:43:22;101690.66;;;31.56;20.33
14089;BME280;7120;52.890;6.040;2023-06-10T12:45:47;101687.88;;;31.25;21.01
14089;BME280;7120;52.890;6.040;2023-06-10T12:48:23;101683.25;;;31.38;21.83
14089;BME280;7120;52.890;6.040;2023-06-10T12:50:57;101697.84;;;31.03;21.77
14089;BME280;7120;52.890;6.040;2023-06-10T12:53:23;101680.81;;;31.06;22.17
14089;BME280;7120;52.890;6.040;2023-06-10T12:55:50;101685.91;;;31.18;20.35
14089;BME280;7120;52.890;6.040;2023-06-10T12:58:16;101680.00;;;31.40;20.55
14089;BME280;7120;52.890;6.040;2023-06-10T13:00:41;101680.97;;;31.84;19.43
14089;BME280;7120;52.890;6.040;2023-06-10T13:03:08;101681.56;;;32.22;20.29
14089;BME280;7120;52.890;6.040;2023-06-10T13:05:37;101681.78;;;32.31;20.00
14089;BME280;7120;52.890;6.040;2023-06-10T13:08:08;101676.75;;;31.95;20.30
14089;BME280;7120;52.890;6.040;2023-06-10T13:10:35;101670.94;;;31.52;21.01
14089;BME280;7120;52.890;6.040;2023-06-10T13:13:01;101663.69;;;30.90;22.67
14089;BME280;7120;52.890;6.040;2023-06-10T13:15:28;101664.25;;;31.08;23.21